createdAt,value
2019-03-23T00:03:07.795Z,47.23
2019-03-23T00:08:12.972Z,35.75
2019-03-23T00:13:16.911Z,37.48
2019-03-23T00:18:20.486Z,37.03
2019-03-23T00:23:24.676Z,35.92
2019-03-23T00:28:28.020Z,34.40
2019-03-23T00:33:31.784Z,37.45
2019-03-23T00:38:35.955Z,36.08
2019-03-23T00:43:39.332Z,36.33
2019-03-23T00:48:42.811Z,46.90
2019-03-23T00:53:46.135Z,45.92
2019-03-23T00:58:49.604Z,54.45
2019-03-23T01:03:52.941Z,33.55
2019-03-23T01:08:56.389Z,46.33
2019-03-23T01:13:59.941Z,43.23
2019-03-23T01:19:03.254Z,41.00
2019-03-23T01:24:07.541Z,40.03
2019-03-23T01:29:10.886Z,42.85
2019-03-23T01:34:17.857Z,36.60
2019-03-23T01:39:22.380Z,43.15
2019-03-23T01:44:25.735Z,42.62
2019-03-23T01:49:29.137Z,45.80
2019-03-23T01:54:33.282Z,43.48
2019-03-23T01:59:38.469Z,48.10
2019-03-23T02:04:41.920Z,56.80
2019-03-23T02:09:45.299Z,47.73
2019-03-23T02:14:52.284Z,39.53
2019-03-23T02:19:59.354Z,40.73
2019-03-23T02:25:06.923Z,46.55
2019-03-23T02:30:14.348Z,51.50
2019-03-23T02:35:18.965Z,48.80
2019-03-23T02:40:22.337Z,60.28
2019-03-23T02:45:25.729Z,68.20
2019-03-23T02:50:30.088Z,58.30
2019-03-23T02:55:35.840Z,55.35
2019-03-23T03:00:40.673Z,53.55
2019-03-23T03:05:47.318Z,49.05
2019-03-23T03:10:52.121Z,46.83
2019-03-23T03:15:57.445Z,48.80
2019-03-23T03:21:02.187Z,47.13
2019-03-23T03:26:07.082Z,46.33
2019-03-23T03:31:10.489Z,56.48
2019-03-23T03:36:24.388Z,50.67
2019-03-23T03:41:27.761Z,56.37
2019-03-23T03:46:31.697Z,50.98
2019-03-23T03:51:36.051Z,55.05
2019-03-23T03:56:42.563Z,49.88
2019-03-23T04:01:46.683Z,42.80
2019-03-23T04:06:50.084Z,48.33
2019-03-23T04:11:53.821Z,44.73
2019-03-23T04:16:57.282Z,44.88
2019-03-23T04:22:03.942Z,43.35
2019-03-23T04:27:08.893Z,49.95
2019-03-23T04:32:12.984Z,47.08
2019-03-23T04:37:16.392Z,51.30
2019-03-23T04:42:19.883Z,46.60
2019-03-23T04:47:24.533Z,55.43
2019-03-23T04:52:27.880Z,51.63
2019-03-23T04:57:32.365Z,48.02
2019-03-23T05:02:35.703Z,48.70
2019-03-23T05:07:39.103Z,42.17
2019-03-23T05:12:50.055Z,45.98
2019-03-23T05:17:55.761Z,45.65
2019-03-23T05:22:59.224Z,43.70
2019-03-23T05:28:02.571Z,31.65
2019-03-23T05:33:05.963Z,33.83
2019-03-23T05:38:09.581Z,30.70
2019-03-23T05:43:13.027Z,29.57
2019-03-23T05:48:16.426Z,27.52
2019-03-23T05:53:21.245Z,30.48
2019-03-23T05:58:24.685Z,29.15
2019-03-23T06:03:29.817Z,27.40
2019-03-23T06:08:34.233Z,25.32
2019-03-23T06:13:41.771Z,24.98
2019-03-23T06:18:45.517Z,25.57
2019-03-23T06:23:53.963Z,26.05
2019-03-23T06:28:57.326Z,29.07
2019-03-23T06:34:00.752Z,28.07
2019-03-23T06:39:05.957Z,22.87
2019-03-23T06:44:09.383Z,29.30
2019-03-23T06:49:12.679Z,29.87
2019-03-23T06:54:16.020Z,33.13
2019-03-23T06:59:21.288Z,32.00
2019-03-23T07:04:28.826Z,34.78
2019-03-23T07:09:33.568Z,35.23
2019-03-23T07:14:40.353Z,29.92
2019-03-23T07:19:43.928Z,25.75
2019-03-23T07:24:51.175Z,26.95
2019-03-23T07:29:55.308Z,23.07
2019-03-23T07:35:03.283Z,15.78
2019-03-23T07:40:08.882Z,15.65
2019-03-23T07:45:15.643Z,14.33
2019-03-23T07:50:19.566Z,20.27
2019-03-23T07:55:26.174Z,18.75
2019-03-23T08:00:35.783Z,21.90
2019-03-23T08:21:42.209Z,13.35
2019-03-23T08:26:49.955Z,13.08
2019-03-23T08:31:54.502Z,11.50
2019-03-23T08:37:03.695Z,14.07
2019-03-23T08:42:11.221Z,11.30
2019-03-23T08:47:16.777Z,10.05
2019-03-23T08:52:22.237Z,14.63
2019-03-23T08:57:29.714Z,10.18
2019-03-23T09:02:35.027Z,13.68
2019-03-23T09:07:38.391Z,14.28
2019-03-23T09:12:44.268Z,15.48
2019-03-23T09:17:49.884Z,13.08
2019-03-23T09:22:56.080Z,12.05
2019-03-23T09:28:14.389Z,10.15
2019-03-23T09:33:19.235Z,10.95
2019-03-23T09:38:23.700Z,12.85
2019-03-23T09:43:29.375Z,10.95
2019-03-23T09:48:33.210Z,8.33
2019-03-23T09:53:36.540Z,10.60
2019-03-23T09:58:42.347Z,11.75
2019-03-23T10:03:48.377Z,11.22
2019-03-23T10:08:56.604Z,7.83
2019-03-23T10:14:03.036Z,9.68
2019-03-23T10:19:05.690Z,9.00
2019-03-23T10:24:09.202Z,8.40
2019-03-23T10:29:12.578Z,9.95
2019-03-23T10:34:19.009Z,9.03
2019-03-23T10:39:22.481Z,9.95
2019-03-23T10:44:30.516Z,7.35
2019-03-23T10:49:35.131Z,9.28
2019-03-23T10:54:38.981Z,7.47
2019-03-23T10:59:42.447Z,9.78
2019-03-23T11:05:21.729Z,10.78
2019-03-23T11:10:29.580Z,10.50
2019-03-23T11:15:33.314Z,12.85
2019-03-23T11:20:36.644Z,10.53
2019-03-23T11:25:40.004Z,8.68
2019-03-23T11:30:43.359Z,10.75
2019-03-23T11:35:46.714Z,10.98
2019-03-23T11:40:54.064Z,11.68
2019-03-23T11:45:58.367Z,13.40
2019-03-23T11:51:01.757Z,13.15
2019-03-23T11:56:09.503Z,11.55
2019-03-23T12:01:13.915Z,13.40
2019-03-23T12:06:17.731Z,13.95
2019-03-23T12:11:21.670Z,17.67
2019-03-23T12:16:26.155Z,15.83
2019-03-23T12:21:30.005Z,16.32
2019-03-23T12:26:33.378Z,12.35
2019-03-23T12:31:36.692Z,12.15
2019-03-23T12:36:40.061Z,11.70
2019-03-23T12:41:43.396Z,13.50
2019-03-23T12:46:48.426Z,13.20
2019-03-23T12:51:51.752Z,10.53
2019-03-23T12:56:55.370Z,14.58
2019-03-23T13:01:59.384Z,13.50
2019-03-23T13:07:06.213Z,15.53
2019-03-23T13:12:09.622Z,15.50
2019-03-23T13:17:13.038Z,13.70
2019-03-23T13:22:18.018Z,11.57
2019-03-23T13:27:21.315Z,16.30
2019-03-23T13:32:24.690Z,17.07
2019-03-23T13:37:28.084Z,10.78
2019-03-23T13:42:31.585Z,17.90
2019-03-23T13:47:35.812Z,14.53
2019-03-23T13:52:39.346Z,12.18
2019-03-23T13:58:02.261Z,13.68
2019-03-23T14:03:08.386Z,15.75
2019-03-23T14:08:13.770Z,12.98
2019-03-23T14:13:17.405Z,14.50
2019-03-23T14:18:23.257Z,16.40
2019-03-23T14:23:27.608Z,16.23
2019-03-23T14:28:30.988Z,14.98
2019-03-23T14:33:34.346Z,17.48
2019-03-23T14:38:37.739Z,14.15
2019-03-23T14:43:41.815Z,16.57
2019-03-23T14:48:46.653Z,15.93
2019-03-23T14:53:50.045Z,14.73
2019-03-23T14:58:54.981Z,20.80
2019-03-23T15:04:00.763Z,17.25
2019-03-23T15:09:05.773Z,18.20
2019-03-23T15:14:11.509Z,17.42
2019-03-23T15:19:15.736Z,18.70
2019-03-23T15:24:21.730Z,17.73
2019-03-23T15:29:32.515Z,13.83
2019-03-23T15:34:38.947Z,14.70
2019-03-23T15:39:44.416Z,10.08
2019-03-23T15:44:50.502Z,14.68
2019-03-23T15:49:55.850Z,12.18
2019-03-23T15:54:59.703Z,13.53
2019-03-23T16:00:04.264Z,21.50
2019-03-23T16:05:08.213Z,11.12
2019-03-23T16:10:11.689Z,12.03
2019-03-23T16:15:14.988Z,13.90
2019-03-23T16:20:22.048Z,14.38
2019-03-23T16:25:29.528Z,13.28
2019-03-23T16:30:35.668Z,16.80
2019-03-23T16:35:40.006Z,18.95
2019-03-23T16:40:45.106Z,14.43
2019-03-23T16:45:49.785Z,15.75
2019-03-23T16:51:14.041Z,20.32
2019-03-23T16:56:19.232Z,20.02
2019-03-23T17:01:23.619Z,18.95
2019-03-23T17:06:27.625Z,21.62
2019-03-23T17:11:32.017Z,19.85
2019-03-23T17:16:38.203Z,17.90
2019-03-23T17:21:42.692Z,23.73
2019-03-23T17:26:47.507Z,29.35
2019-03-23T17:31:52.658Z,30.30
2019-03-23T17:36:56.580Z,33.75
2019-03-23T17:42:00.196Z,34.75
2019-03-23T17:47:05.066Z,34.13
2019-03-23T17:52:10.725Z,45.05
2019-03-23T17:57:14.829Z,47.08
2019-03-23T18:02:18.216Z,38.90
2019-03-23T18:07:29.303Z,41.20
2019-03-23T18:12:32.918Z,46.40
2019-03-23T18:17:36.249Z,42.65
2019-03-23T18:22:39.752Z,51.28
2019-03-23T18:27:45.400Z,41.28
2019-03-23T18:32:49.645Z,44.85
2019-03-23T18:37:53.095Z,49.00
2019-03-23T18:42:59.238Z,46.68
2019-03-23T18:48:02.690Z,62.10
2019-03-23T18:53:16.528Z,57.17
2019-03-23T18:58:20.452Z,55.15
2019-03-23T19:03:27.423Z,51.20
2019-03-23T19:08:31.966Z,52.08
2019-03-23T19:13:38.145Z,59.50
2019-03-23T19:18:41.609Z,71.82
2019-03-23T19:23:46.509Z,63.87
2019-03-23T19:28:49.982Z,64.20
2019-03-23T19:33:54.055Z,59.58
2019-03-23T19:38:57.710Z,61.35
2019-03-23T19:44:01.101Z,68.95
2019-03-23T19:49:05.458Z,64.05
2019-03-23T19:54:08.918Z,58.95
2019-03-23T19:59:12.267Z,63.45
2019-03-23T20:04:15.613Z,62.50
2019-03-23T20:09:19.294Z,67.32
2019-03-23T20:14:23.732Z,65.15
2019-03-23T20:19:27.450Z,64.12
2019-03-23T20:24:30.847Z,67.65
2019-03-23T20:29:34.174Z,70.87
2019-03-23T20:34:37.952Z,72.75
2019-03-23T20:39:41.389Z,68.35
2019-03-23T20:44:45.903Z,67.45
2019-03-23T20:49:49.291Z,64.77
2019-03-23T20:54:54.096Z,63.87
2019-03-23T20:59:58.014Z,65.90
2019-03-23T21:05:01.363Z,64.95
2019-03-23T21:10:06.834Z,66.85
2019-03-23T21:15:10.546Z,69.40
2019-03-23T21:20:13.877Z,70.08
2019-03-23T21:25:17.207Z,80.47
2019-03-23T21:30:21.502Z,77.50
2019-03-23T21:35:25.808Z,75.92
2019-03-23T21:40:29.247Z,65.87
2019-03-23T21:45:33.360Z,62.90
2019-03-23T21:50:46.769Z,70.65
2019-03-23T21:55:42.839Z,71.77
2019-03-23T22:00:46.301Z,72.78
2019-03-23T22:05:49.679Z,79.35
2019-03-23T22:10:54.893Z,76.47
2019-03-23T22:16:00.013Z,78.85
2019-03-23T22:21:04.875Z,86.92
2019-03-23T22:26:10.481Z,83.75
2019-03-23T22:31:13.231Z,83.17
2019-03-23T22:36:17.339Z,84.92
2019-03-23T22:41:21.185Z,80.80
2019-03-23T22:46:24.520Z,85.30
2019-03-23T22:51:29.201Z,87.15
2019-03-23T22:56:32.934Z,95.30
2019-03-23T23:01:37.888Z,78.45
2019-03-23T23:06:42.194Z,81.35
2019-03-23T23:11:45.617Z,78.78
2019-03-23T23:16:49.716Z,70.62
2019-03-23T23:21:53.031Z,63.02
2019-03-23T23:26:56.555Z,58.73
2019-03-23T23:32:01.542Z,52.78
2019-03-23T23:37:07.011Z,45.80
2019-03-23T23:42:10.420Z,46.40
2019-03-23T23:47:14.193Z,46.60
2019-03-23T23:52:18.328Z,45.73
2019-03-23T23:57:23.772Z,40.08
